sensor_id;sensor_type;location;lat;lon;timestamp;temperature;humidity
67899;DHT22;54699;51.796;10.956;2023-11-21T00:01:02;17.60;57.60
67899;DHT22;54699;51.796;10.956;2023-11-21T00:03:29;17.60;57.50
67899;DHT22;54699;51.796;10.956;2023-11-21T00:05:56;17.60;57.50
67899;DHT22;54699;51.796;10.956;2023-11-21T00:08:23;17.60;57.60
67899;DHT22;54699;51.796;10.956;2023-11-21T00:10:50;17.60;57.60
67899;DHT22;54699;51.796;10.956;2023-11-21T00:13:17;17.60;57.50
67899;DHT22;54699;51.796;10.956;2023-11-21T00:15:44;17.60;57.60
67899;DHT22;54699;51.796;10.956;2023-11-21T00:18:12;17.60;57.50
67899;DHT22;54699;51.796;10.956;2023-11-21T00:20:39;17.60;57.60
67899;DHT22;54699;51.796;10.956;2023-11-21T00:23:07;17.60;57.50
67899;DHT22;54699;51.796;10.956;2023-11-21T00:25:34;17.60;57.60
67899;DHT22;54699;51.796;10.956;2023-11-21T00:28:02;17.60;57.50
67899;DHT22;54699;51.796;10.956;2023-11-21T00:30:28;17.60;57.50
67899;DHT22;54699;51.796;10.956;2023-11-21T00:32:56;17.60;57.60
67899;DHT22;54699;51.796;10.956;2023-11-21T00:35:24;17.60;57.50
67899;DHT22;54699;51.796;10.956;2023-11-21T00:37:51;17.60;57.50
67899;DHT22;54699;51.796;10.956;2023-11-21T00:40:18;17.60;57.60
67899;DHT22;54699;51.796;10.956;2023-11-21T00:42:46;17.60;57.50
67899;DHT22;54699;51.796;10.956;2023-11-21T00:45:13;17.60;57.50
67899;DHT22;54699;51.796;10.956;2023-11-21T00:47:40;17.60;57.60
67899;DHT22;54699;51.796;10.956;2023-11-21T00:50:08;17.60;57.60
67899;DHT22;54699;51.796;10.956;2023-11-21T00:52:37;17.60;57.60
67899;DHT22;54699;51.796;10.956;2023-11-21T00:55:04;17.60;57.60
67899;DHT22;54699;51.796;10.956;2023-11-21T00:57:32;17.60;57.60
67899;DHT22;54699;51.796;10.956;2023-11-21T01:00:02;17.60;57.60
67899;DHT22;54699;51.796;10.956;2023-11-21T01:02:33;17.50;57.50
67899;DHT22;54699;51.796;10.956;2023-11-21T01:05:01;17.60;57.60
67899;DHT22;54699;51.796;10.956;2023-11-21T01:07:27;17.60;57.60
67899;DHT22;54699;51.796;10.956;2023-11-21T01:09:56;17.60;57.60
67899;DHT22;54699;51.796;10.956;2023-11-21T01:12:22;17.50;57.50
67899;DHT22;54699;51.796;10.956;2023-11-21T01:14:50;17.60;57.60
67899;DHT22;54699;51.796;10.956;2023-11-21T01:17:17;17.60;57.50
67899;DHT22;54699;51.796;10.956;2023-11-21T01:19:44;17.60;57.60
67899;DHT22;54699;51.796;10.956;2023-11-21T01:22:11;17.60;57.50
67899;DHT22;54699;51.796;10.956;2023-11-21T01:24:38;17.60;57.60
67899;DHT22;54699;51.796;10.956;2023-11-21T01:27:06;17.50;57.50
67899;DHT22;54699;51.796;10.956;2023-11-21T01:29:34;17.60;57.50
67899;DHT22;54699;51.796;10.956;2023-11-21T01:32:01;17.60;57.60
67899;DHT22;54699;51.796;10.956;2023-11-21T01:34:28;17.60;57.50
67899;DHT22;54699;51.796;10.956;2023-11-21T01:36:56;17.50;57.50
67899;DHT22;54699;51.796;10.956;2023-11-21T01:39:23;17.50;57.50
67899;DHT22;54699;51.796;10.956;2023-11-21T01:41:49;17.60;57.50
67899;DHT22;54699;51.796;10.956;2023-11-21T01:44:18;17.60;57.60
67899;DHT22;54699;51.796;10.956;2023-11-21T01:46:47;17.50;57.50
67899;DHT22;54699;51.796;10.956;2023-11-21T01:49:14;17.60;57.60
67899;DHT22;54699;51.796;10.956;2023-11-21T01:51:43;17.50;57.50
67899;DHT22;54699;51.796;10.956;2023-11-21T01:54:13;17.50;57.50
67899;DHT22;54699;51.796;10.956;2023-11-21T01:56:39;17.60;57.50
67899;DHT22;54699;51.796;10.956;2023-11-21T01:59:06;17.50;57.50
67899;DHT22;54699;51.796;10.956;2023-11-21T02:01:35;17.60;57.60
67899;DHT22;54699;51.796;10.956;2023-11-21T02:04:02;17.50;57.60
67899;DHT22;54699;51.796;10.956;2023-11-21T02:06:29;17.50;57.50
67899;DHT22;54699;51.796;10.956;2023-11-21T02:08:56;17.50;57.50
67899;DHT22;54699;51.796;10.956;2023-11-21T02:11:25;17.50;57.50
67899;DHT22;54699;51.796;10.956;2023-11-21T02:13:52;17.50;57.50
67899;DHT22;54699;51.796;10.956;2023-11-21T02:16:20;17.50;57.50
67899;DHT22;54699;51.796;10.956;2023-11-21T02:18:48;17.50;57.50
67899;DHT22;54699;51.796;10.956;2023-11-21T02:21:16;17.50;57.60
67899;DHT22;54699;51.796;10.956;2023-11-21T02:23:45;17.50;57.50
67899;DHT22;54699;51.796;10.956;2023-11-21T02:26:12;17.50;57.50
67899;DHT22;54699;51.796;10.956;2023-11-21T02:28:39;17.50;57.50
67899;DHT22;54699;51.796;10.956;2023-11-21T02:31:07;17.50;57.50
67899;DHT22;54699;51.796;10.956;2023-11-21T02:33:34;17.50;57.50
67899;DHT22;54699;51.796;10.956;2023-11-21T02:36:01;17.50;57.50
67899;DHT22;54699;51.796;10.956;2023-11-21T02:38:28;17.50;57.50
67899;DHT22;54699;51.796;10.956;2023-11-21T02:40:57;17.50;57.50
67899;DHT22;54699;51.796;10.956;2023-11-21T02:43:24;17.50;57.50
67899;DHT22;54699;51.796;10.956;2023-11-21T02:45:51;17.50;57.50
67899;DHT22;54699;51.796;10.956;2023-11-21T02:48:18;17.50;57.50
67899;DHT22;54699;51.796;10.956;2023-11-21T02:50:45;17.50;57.50
67899;DHT22;54699;51.796;10.956;2023-11-21T02:53:12;17.50;57.50
67899;DHT22;54699;51.796;10.956;2023-11-21T02:55:40;17.50;57.50
67899;DHT22;54699;51.796;10.956;2023-11-21T02:58:08;17.50;57.50
67899;DHT22;54699;51.796;10.956;2023-11-21T03:00:35;17.50;57.50
67899;DHT22;54699;51.796;10.956;2023-11-21T03:03:02;17.50;57.50
67899;DHT22;54699;51.796;10.956;2023-11-21T03:05:29;17.50;57.50
67899;DHT22;54699;51.796;10.956;2023-11-21T03:07:56;17.50;57.50
67899;DHT22;54699;51.796;10.956;2023-11-21T03:10:23;17.50;57.50
67899;DHT22;54699;51.796;10.956;2023-11-21T03:12:50;17.50;57.60
67899;DHT22;54699;51.796;10.956;2023-11-21T03:15:18;17.50;57.50
67899;DHT22;54699;51.796;10.956;2023-11-21T03:17:45;17.50;57.50
67899;DHT22;54699;51.796;10.956;2023-11-21T03:20:14;17.50;57.50
67899;DHT22;54699;51.796;10.956;2023-11-21T03:22:41;17.50;57.60
67899;DHT22;54699;51.796;10.956;2023-11-21T03:25:08;17.50;57.50
67899;DHT22;54699;51.796;10.956;2023-11-21T03:27:36;17.50;58.40
67899;DHT22;54699;51.796;10.956;2023-11-21T03:30:04;17.50;57.60
67899;DHT22;54699;51.796;10.956;2023-11-21T03:32:35;17.50;57.50
67899;DHT22;54699;51.796;10.956;2023-11-21T03:35:02;17.50;57.50
67899;DHT22;54699;51.796;10.956;2023-11-21T03:37:31;17.50;57.50
67899;DHT22;54699;51.796;10.956;2023-11-21T03:39:58;17.50;57.50
67899;DHT22;54699;51.796;10.956;2023-11-21T03:42:25;17.50;57.50
67899;DHT22;54699;51.796;10.956;2023-11-21T03:44:52;17.50;57.60
67899;DHT22;54699;51.796;10.956;2023-11-21T03:47:19;17.50;57.60
67899;DHT22;54699;51.796;10.956;2023-11-21T03:49:47;17.50;57.60
67899;DHT22;54699;51.796;10.956;2023-11-21T03:52:14;17.50;57.50
67899;DHT22;54699;51.796;10.956;2023-11-21T03:54:40;17.50;57.50
67899;DHT22;54699;51.796;10.956;2023-11-21T03:57:07;17.50;57.50
67899;DHT22;54699;51.796;10.956;2023-11-21T03:59:34;17.50;57.50
67899;DHT22;54699;51.796;10.956;2023-11-21T04:02:01;17.50;57.50
67899;DHT22;54699;51.796;10.956;2023-11-21T04:04:28;17.50;57.50
67899;DHT22;54699;51.796;10.956;2023-11-21T04:06:56;17.50;57.50
67899;DHT22;54699;51.796;10.956;2023-11-21T04:09:23;17.50;57.60
67899;DHT22;54699;51.796;10.956;2023-11-21T04:11:50;17.50;57.50
67899;DHT22;54699;51.796;10.956;2023-11-21T04:14:17;17.50;57.60
67899;DHT22;54699;51.796;10.956;2023-11-21T04:16:44;17.50;57.50
67899;DHT22;54699;51.796;10.956;2023-11-21T04:19:11;17.50;57.50
67899;DHT22;54699;51.796;10.956;2023-11-21T04:21:39;17.50;57.60
67899;DHT22;54699;51.796;10.956;2023-11-21T04:24:08;17.50;57.50
67899;DHT22;54699;51.796;10.956;2023-11-21T04:26:35;17.50;57.50
67899;DHT22;54699;51.796;10.956;2023-11-21T04:29:02;17.50;57.60
67899;DHT22;54699;51.796;10.956;2023-11-21T04:31:29;17.50;57.50
67899;DHT22;54699;51.796;10.956;2023-11-21T04:33:57;17.40;57.40
67899;DHT22;54699;51.796;10.956;2023-11-21T04:36:24;17.50;57.60
67899;DHT22;54699;51.796;10.956;2023-11-21T04:38:51;17.50;57.50
67899;DHT22;54699;51.796;10.956;2023-11-21T04:41:19;17.50;57.50
67899;DHT22;54699;51.796;10.956;2023-11-21T04:43:46;17.50;57.50
67899;DHT22;54699;51.796;10.956;2023-11-21T04:46:12;17.50;57.50
67899;DHT22;54699;51.796;10.956;2023-11-21T04:48:39;17.50;57.50
67899;DHT22;54699;51.796;10.956;2023-11-21T04:51:06;17.50;57.60
67899;DHT22;54699;51.796;10.956;2023-11-21T04:53:33;17.40;57.40
67899;DHT22;54699;51.796;10.956;2023-11-21T04:56:01;17.50;57.50
67899;DHT22;54699;51.796;10.956;2023-11-21T04:58:30;17.50;57.50
67899;DHT22;54699;51.796;10.956;2023-11-21T05:00:57;17.50;57.50
67899;DHT22;54699;51.796;10.956;2023-11-21T05:03:24;17.50;57.50
67899;DHT22;54699;51.796;10.956;2023-11-21T05:05:51;17.50;57.50
67899;DHT22;54699;51.796;10.956;2023-11-21T05:08:21;17.50;57.50
67899;DHT22;54699;51.796;10.956;2023-11-21T05:10:48;17.50;57.50
67899;DHT22;54699;51.796;10.956;2023-11-21T05:13:15;17.50;57.40
67899;DHT22;54699;51.796;10.956;2023-11-21T05:15:44;17.50;57.40
67899;DHT22;54699;51.796;10.956;2023-11-21T05:18:11;17.50;57.50
67899;DHT22;54699;51.796;10.956;2023-11-21T05:20:39;17.50;57.50
67899;DHT22;54699;51.796;10.956;2023-11-21T05:23:06;17.50;57.40
67899;DHT22;54699;51.796;10.956;2023-11-21T05:25:33;17.50;57.50
67899;DHT22;54699;51.796;10.956;2023-11-21T05:28:00;17.50;57.40
67899;DHT22;54699;51.796;10.956;2023-11-21T05:30:28;17.50;57.40
67899;DHT22;54699;51.796;10.956;2023-11-21T05:32:56;17.50;57.50
67899;DHT22;54699;51.796;10.956;2023-11-21T05:35:23;17.50;57.40
67899;DHT22;54699;51.796;10.956;2023-11-21T05:37:50;17.50;57.30
67899;DHT22;54699;51.796;10.956;2023-11-21T05:40:17;17.50;57.60
67899;DHT22;54699;51.796;10.956;2023-11-21T05:42:44;17.50;57.50
67899;DHT22;54699;51.796;10.956;2023-11-21T05:45:10;17.50;57.60
67899;DHT22;54699;51.796;10.956;2023-11-21T05:47:38;17.50;57.40
67899;DHT22;54699;51.796;10.956;2023-11-21T05:50:07;17.50;57.70
67899;DHT22;54699;51.796;10.956;2023-11-21T05:52:37;17.40;57.50
67899;DHT22;54699;51.796;10.956;2023-11-21T05:55:05;17.50;57.80
67899;DHT22;54699;51.796;10.956;2023-11-21T05:57:34;17.40;57.70
67899;DHT22;54699;51.796;10.956;2023-11-21T06:00:03;17.40;57.60
67899;DHT22;54699;51.796;10.956;2023-11-21T06:02:36;17.40;57.90
67899;DHT22;54699;51.796;10.956;2023-11-21T06:05:04;17.40;57.80
67899;DHT22;54699;51.796;10.956;2023-11-21T06:07:33;17.40;57.80
67899;DHT22;54699;51.796;10.956;2023-11-21T06:10:01;17.30;57.70
67899;DHT22;54699;51.796;10.956;2023-11-21T06:12:31;17.40;57.80
67899;DHT22;54699;51.796;10.956;2023-11-21T06:15:01;17.40;57.30
67899;DHT22;54699;51.796;10.956;2023-11-21T06:17:29;17.50;57.40
67899;DHT22;54699;51.796;10.956;2023-11-21T06:19:56;17.50;57.70
67899;DHT22;54699;51.796;10.956;2023-11-21T06:22:23;17.50;57.80
67899;DHT22;54699;51.796;10.956;2023-11-21T06:24:52;17.50;57.80
67899;DHT22;54699;51.796;10.956;2023-11-21T06:27:19;17.50;57.70
67899;DHT22;54699;51.796;10.956;2023-11-21T06:29:46;17.50;57.70
67899;DHT22;54699;51.796;10.956;2023-11-21T06:32:13;17.50;57.70
67899;DHT22;54699;51.796;10.956;2023-11-21T06:34:41;17.60;57.80
67899;DHT22;54699;51.796;10.956;2023-11-21T06:37:09;17.60;57.80
67899;DHT22;54699;51.796;10.956;2023-11-21T06:39:37;17.50;57.90
67899;DHT22;54699;51.796;10.956;2023-11-21T06:42:06;17.50;58.10
67899;DHT22;54699;51.796;10.956;2023-11-21T06:44:33;17.50;58.00
67899;DHT22;54699;51.796;10.956;2023-11-21T06:47:01;17.50;58.90
67899;DHT22;54699;51.796;10.956;2023-11-21T06:49:28;17.50;58.30
67899;DHT22;54699;51.796;10.956;2023-11-21T06:51:56;17.50;58.50
67899;DHT22;54699;51.796;10.956;2023-11-21T06:54:23;17.50;58.40
67899;DHT22;54699;51.796;10.956;2023-11-21T07:03:42;17.50;58.20
67899;DHT22;54699;51.796;10.956;2023-11-21T07:06:09;17.50;58.20
67899;DHT22;54699;51.796;10.956;2023-11-21T07:08:36;17.50;58.10
67899;DHT22;54699;51.796;10.956;2023-11-21T07:11:03;17.50;57.70
67899;DHT22;54699;51.796;10.956;2023-11-21T07:13:30;17.50;57.50
67899;DHT22;54699;51.796;10.956;2023-11-21T07:15:57;17.60;57.80
67899;DHT22;54699;51.796;10.956;2023-11-21T07:18:24;17.60;57.90
67899;DHT22;54699;51.796;10.956;2023-11-21T07:20:52;17.60;58.00
67899;DHT22;54699;51.796;10.956;2023-11-21T07:23:19;17.60;58.10
67899;DHT22;54699;51.796;10.956;2023-11-21T07:25:47;17.60;58.00
67899;DHT22;54699;51.796;10.956;2023-11-21T07:28:14;17.60;58.20
67899;DHT22;54699;51.796;10.956;2023-11-21T07:30:41;17.60;58.40
67899;DHT22;54699;51.796;10.956;2023-11-21T07:33:08;17.50;58.20
67899;DHT22;54699;51.796;10.956;2023-11-21T07:35:35;17.60;58.20
67899;DHT22;54699;51.796;10.956;2023-11-21T07:38:04;17.60;58.20
67899;DHT22;54699;51.796;10.956;2023-11-21T07:40:30;17.50;58.50
67899;DHT22;54699;51.796;10.956;2023-11-21T07:42:58;17.60;58.50
67899;DHT22;54699;51.796;10.956;2023-11-21T07:45:25;17.60;58.40
67899;DHT22;54699;51.796;10.956;2023-11-21T07:47:52;17.60;58.20
67899;DHT22;54699;51.796;10.956;2023-11-21T07:50:20;17.60;58.30
67899;DHT22;54699;51.796;10.956;2023-11-21T07:52:48;17.60;58.50
67899;DHT22;54699;51.796;10.956;2023-11-21T07:55:17;17.60;58.30
67899;DHT22;54699;51.796;10.956;2023-11-21T07:57:44;17.60;58.20
67899;DHT22;54699;51.796;10.956;2023-11-21T08:00:12;17.60;57.90
67899;DHT22;54699;51.796;10.956;2023-11-21T08:02:40;17.60;58.60
67899;DHT22;54699;51.796;10.956;2023-11-21T08:05:11;17.60;58.30
67899;DHT22;54699;51.796;10.956;2023-11-21T08:07:38;17.60;58.50
67899;DHT22;54699;51.796;10.956;2023-11-21T08:10:06;17.70;56.40
67899;DHT22;54699;51.796;10.956;2023-11-21T08:12:37;17.70;57.20
67899;DHT22;54699;51.796;10.956;2023-11-21T08:15:05;17.70;55.80
67899;DHT22;54699;51.796;10.956;2023-11-21T08:17:33;17.70;55.60
67899;DHT22;54699;51.796;10.956;2023-11-21T08:20:00;17.70;56.90
67899;DHT22;54699;51.796;10.956;2023-11-21T08:22:29;17.70;57.80
67899;DHT22;54699;51.796;10.956;2023-11-21T08:24:56;17.70;59.10
67899;DHT22;54699;51.796;10.956;2023-11-21T08:27:23;17.80;58.80
67899;DHT22;54699;51.796;10.956;2023-11-21T08:29:52;17.80;58.60
67899;DHT22;54699;51.796;10.956;2023-11-21T08:32:20;17.80;58.60
67899;DHT22;54699;51.796;10.956;2023-11-21T08:34:47;17.80;57.00
67899;DHT22;54699;51.796;10.956;2023-11-21T08:37:16;17.80;58.40
67899;DHT22;54699;51.796;10.956;2023-11-21T08:39:43;17.80;58.70
67899;DHT22;54699;51.796;10.956;2023-11-21T08:42:11;18.00;58.60
67899;DHT22;54699;51.796;10.956;2023-11-21T08:44:38;18.00;57.60
67899;DHT22;54699;51.796;10.956;2023-11-21T08:50:33;18.10;58.40
67899;DHT22;54699;51.796;10.956;2023-11-21T08:53:16;18.20;58.50
67899;DHT22;54699;51.796;10.956;2023-11-21T08:55:44;18.30;58.50
67899;DHT22;54699;51.796;10.956;2023-11-21T08:58:13;18.40;58.60
67899;DHT22;54699;51.796;10.956;2023-11-21T09:00:59;18.40;57.90
67899;DHT22;54699;51.796;10.956;2023-11-21T09:03:29;18.40;58.60
67899;DHT22;54699;51.796;10.956;2023-11-21T09:05:59;18.40;57.30
67899;DHT22;54699;51.796;10.956;2023-11-21T09:08:26;18.40;56.30
67899;DHT22;54699;51.796;10.956;2023-11-21T09:10:54;18.30;57.60
67899;DHT22;54699;51.796;10.956;2023-11-21T09:13:22;18.30;55.00
67899;DHT22;54699;51.796;10.956;2023-11-21T09:15:50;18.20;56.50
67899;DHT22;54699;51.796;10.956;2023-11-21T09:18:17;18.20;58.20
67899;DHT22;54699;51.796;10.956;2023-11-21T09:20:44;18.10;59.00
67899;DHT22;54699;51.796;10.956;2023-11-21T09:23:12;18.10;59.50
67899;DHT22;54699;51.796;10.956;2023-11-21T09:25:39;18.00;59.70
67899;DHT22;54699;51.796;10.956;2023-11-21T09:28:06;18.00;59.70
67899;DHT22;54699;51.796;10.956;2023-11-21T09:30:33;17.90;60.00
67899;DHT22;54699;51.796;10.956;2023-11-21T09:33:01;17.90;60.10
67899;DHT22;54699;51.796;10.956;2023-11-21T09:35:30;17.90;59.40
67899;DHT22;54699;51.796;10.956;2023-11-21T09:37:57;17.90;59.80
67899;DHT22;54699;51.796;10.956;2023-11-21T09:40:28;17.90;60.30
67899;DHT22;54699;51.796;10.956;2023-11-21T09:42:57;17.90;60.20
67899;DHT22;54699;51.796;10.956;2023-11-21T09:45:25;17.90;60.30
67899;DHT22;54699;51.796;10.956;2023-11-21T09:47:54;17.90;60.50
67899;DHT22;54699;51.796;10.956;2023-11-21T09:50:22;17.90;58.70
67899;DHT22;54699;51.796;10.956;2023-11-21T09:52:55;17.90;59.50
67899;DHT22;54699;51.796;10.956;2023-11-21T09:55:28;17.90;60.50
67899;DHT22;54699;51.796;10.956;2023-11-21T09:58:01;17.90;60.40
67899;DHT22;54699;51.796;10.956;2023-11-21T10:00:30;17.90;60.20
67899;DHT22;54699;51.796;10.956;2023-11-21T10:02:58;17.90;60.10
67899;DHT22;54699;51.796;10.956;2023-11-21T10:05:27;17.90;60.10
67899;DHT22;54699;51.796;10.956;2023-11-21T10:07:54;17.90;60.10
67899;DHT22;54699;51.796;10.956;2023-11-21T10:10:23;17.90;60.10
67899;DHT22;54699;51.796;10.956;2023-11-21T10:12:53;17.90;60.00
67899;DHT22;54699;51.796;10.956;2023-11-21T10:15:23;17.90;61.10
67899;DHT22;54699;51.796;10.956;2023-11-21T10:17:52;17.90;60.10
67899;DHT22;54699;51.796;10.956;2023-11-21T10:20:20;17.90;58.90
67899;DHT22;54699;51.796;10.956;2023-11-21T10:22:49;17.90;59.90
67899;DHT22;54699;51.796;10.956;2023-11-21T10:25:17;17.90;60.50
67899;DHT22;54699;51.796;10.956;2023-11-21T10:27:47;17.90;60.50
67899;DHT22;54699;51.796;10.956;2023-11-21T10:30:18;17.90;60.50
67899;DHT22;54699;51.796;10.956;2023-11-21T10:32:45;17.90;59.70
67899;DHT22;54699;51.796;10.956;2023-11-21T10:35:13;17.80;59.30
67899;DHT22;54699;51.796;10.956;2023-11-21T10:37:40;17.90;60.30
67899;DHT22;54699;51.796;10.956;2023-11-21T10:40:10;18.00;59.60
67899;DHT22;54699;51.796;10.956;2023-11-21T10:42:38;18.00;60.60
67899;DHT22;54699;51.796;10.956;2023-11-21T10:45:06;18.10;59.90
67899;DHT22;54699;51.796;10.956;2023-11-21T10:47:43;18.20;60.00
67899;DHT22;54699;51.796;10.956;2023-11-21T10:50:11;18.20;58.50
67899;DHT22;54699;51.796;10.956;2023-11-21T10:52:40;18.30;58.30
67899;DHT22;54699;51.796;10.956;2023-11-21T10:55:17;18.40;59.10
67899;DHT22;54699;51.796;10.956;2023-11-21T10:57:52;18.40;59.60
67899;DHT22;54699;51.796;10.956;2023-11-21T11:00:27;18.50;59.20
67899;DHT22;54699;51.796;10.956;2023-11-21T11:02:58;18.60;59.30
67899;DHT22;54699;51.796;10.956;2023-11-21T11:05:27;18.60;58.60
67899;DHT22;54699;51.796;10.956;2023-11-21T11:07:58;18.50;57.80
67899;DHT22;54699;51.796;10.956;2023-11-21T11:10:27;18.50;58.70
67899;DHT22;54699;51.796;10.956;2023-11-21T11:12:56;18.40;58.80
67899;DHT22;54699;51.796;10.956;2023-11-21T11:15:24;18.30;58.30
67899;DHT22;54699;51.796;10.956;2023-11-21T11:17:52;18.30;55.30
67899;DHT22;54699;51.796;10.956;2023-11-21T11:20:24;18.20;55.30
67899;DHT22;54699;51.796;10.956;2023-11-21T11:23:04;18.20;57.30
67899;DHT22;54699;51.796;10.956;2023-11-21T11:25:47;18.20;58.60
67899;DHT22;54699;51.796;10.956;2023-11-21T11:28:27;18.20;59.00
67899;DHT22;54699;51.796;10.956;2023-11-21T11:31:14;18.10;59.40
67899;DHT22;54699;51.796;10.956;2023-11-21T11:33:56;18.20;59.60
67899;DHT22;54699;51.796;10.956;2023-11-21T11:36:29;18.10;59.60
67899;DHT22;54699;51.796;10.956;2023-11-21T11:39:03;18.10;59.70
67899;DHT22;54699;51.796;10.956;2023-11-21T11:41:31;18.10;59.80
67899;DHT22;54699;51.796;10.956;2023-11-21T11:44:00;18.10;59.80
67899;DHT22;54699;51.796;10.956;2023-11-21T11:46:40;18.00;59.90
67899;DHT22;54699;51.796;10.956;2023-11-21T11:49:08;18.00;59.80
67899;DHT22;54699;51.796;10.956;2023-11-21T11:51:38;18.00;59.80
67899;DHT22;54699;51.796;10.956;2023-11-21T11:54:07;18.00;59.60
67899;DHT22;54699;51.796;10.956;2023-11-21T11:56:35;18.00;59.60
67899;DHT22;54699;51.796;10.956;2023-11-21T11:59:05;18.00;59.10
67899;DHT22;54699;51.796;10.956;2023-11-21T12:01:35;17.90;58.90
67899;DHT22;54699;51.796;10.956;2023-11-21T12:07:01;17.90;58.10
67899;DHT22;54699;51.796;10.956;2023-11-21T12:09:29;17.90;57.50
67899;DHT22;54699;51.796;10.956;2023-11-21T12:11:58;17.90;57.60
67899;DHT22;54699;51.796;10.956;2023-11-21T12:14:25;17.90;58.30
67899;DHT22;54699;51.796;10.956;2023-11-21T12:16:54;17.90;57.80
67899;DHT22;54699;51.796;10.956;2023-11-21T12:19:24;17.80;58.70
67899;DHT22;54699;51.796;10.956;2023-11-21T12:21:51;17.90;59.30
67899;DHT22;54699;51.796;10.956;2023-11-21T12:24:22;17.90;59.50
67899;DHT22;54699;51.796;10.956;2023-11-21T12:26:49;17.90;59.50
67899;DHT22;54699;51.796;10.956;2023-11-21T12:29:16;17.90;59.40
67899;DHT22;54699;51.796;10.956;2023-11-21T12:31:43;17.90;59.40
67899;DHT22;54699;51.796;10.956;2023-11-21T12:34:11;18.00;59.40
67899;DHT22;54699;51.796;10.956;2023-11-21T12:36:38;17.90;59.40
67899;DHT22;54699;51.796;10.956;2023-11-21T12:39:05;17.90;59.20
67899;DHT22;54699;51.796;10.956;2023-11-21T12:41:36;17.90;58.60
67899;DHT22;54699;51.796;10.956;2023-11-21T12:44:03;17.90;58.20
67899;DHT22;54699;51.796;10.956;2023-11-21T12:46:31;17.90;58.10
67899;DHT22;54699;51.796;10.956;2023-11-21T12:49:01;17.80;55.70
67899;DHT22;54699;51.796;10.956;2023-11-21T12:51:28;17.90;57.70
67899;DHT22;54699;51.796;10.956;2023-11-21T12:53:55;17.90;55.90
67899;DHT22;54699;51.796;10.956;2023-11-21T12:56:23;17.80;54.70
67899;DHT22;54699;51.796;10.956;2023-11-21T12:58:54;17.80;55.50
67899;DHT22;54699;51.796;10.956;2023-11-21T13:01:25;17.70;54.80
67899;DHT22;54699;51.796;10.956;2023-11-21T13:03:56;17.80;55.30
67899;DHT22;54699;51.796;10.956;2023-11-21T13:06:25;17.80;56.90
67899;DHT22;54699;51.796;10.956;2023-11-21T13:08:52;17.80;56.50
67899;DHT22;54699;51.796;10.956;2023-11-21T13:11:22;17.80;58.50
67899;DHT22;54699;51.796;10.956;2023-11-21T13:13:51;17.80;57.60
67899;DHT22;54699;51.796;10.956;2023-11-21T13:16:20;17.80;57.40
67899;DHT22;54699;51.796;10.956;2023-11-21T13:18:47;17.90;57.20
67899;DHT22;54699;51.796;10.956;2023-11-21T13:21:14;17.80;57.00
67899;DHT22;54699;51.796;10.956;2023-11-21T13:23:42;17.80;57.00
67899;DHT22;54699;51.796;10.956;2023-11-21T13:26:11;17.90;57.00
67899;DHT22;54699;51.796;10.956;2023-11-21T13:28:40;17.80;56.70
67899;DHT22;54699;51.796;10.956;2023-11-21T13:31:11;17.80;56.70
67899;DHT22;54699;51.796;10.956;2023-11-21T13:33:52;17.80;56.70
67899;DHT22;54699;51.796;10.956;2023-11-21T13:36:24;17.80;56.70
67899;DHT22;54699;51.796;10.956;2023-11-21T13:38:55;17.80;56.70
67899;DHT22;54699;51.796;10.956;2023-11-21T13:41:24;17.80;56.50
67899;DHT22;54699;51.796;10.956;2023-11-21T13:43:55;17.80;56.20
67899;DHT22;54699;51.796;10.956;2023-11-21T13:46:29;17.80;55.80
67899;DHT22;54699;51.796;10.956;2023-11-21T13:49:03;17.80;56.60
67899;DHT22;54699;51.796;10.956;2023-11-21T13:51:35;17.80;56.20
67899;DHT22;54699;51.796;10.956;2023-11-21T13:54:07;17.70;56.20
67899;DHT22;54699;51.796;10.956;2023-11-21T13:56:35;17.70;56.40
67899;DHT22;54699;51.796;10.956;2023-11-21T13:59:02;17.80;56.50
67899;DHT22;54699;51.796;10.956;2023-11-21T14:01:42;17.80;56.70
67899;DHT22;54699;51.796;10.956;2023-11-21T14:04:21;17.70;56.40
67899;DHT22;54699;51.796;10.956;2023-11-21T14:07:04;17.80;56.40
67899;DHT22;54699;51.796;10.956;2023-11-21T14:09:45;17.80;56.10
67899;DHT22;54699;51.796;10.956;2023-11-21T14:12:15;17.80;56.30
67899;DHT22;54699;51.796;10.956;2023-11-21T14:14:42;17.80;56.20
67899;DHT22;54699;51.796;10.956;2023-11-21T14:17:10;17.80;56.10
67899;DHT22;54699;51.796;10.956;2023-11-21T14:19:38;17.80;56.00
67899;DHT22;54699;51.796;10.956;2023-11-21T14:22:08;17.80;55.80
67899;DHT22;54699;51.796;10.956;2023-11-21T14:24:36;17.80;55.90
67899;DHT22;54699;51.796;10.956;2023-11-21T14:27:06;17.80;55.30
67899;DHT22;54699;51.796;10.956;2023-11-21T14:29:33;17.80;55.60
67899;DHT22;54699;51.796;10.956;2023-11-21T14:32:05;17.70;54.20
67899;DHT22;54699;51.796;10.956;2023-11-21T14:34:32;17.80;55.40
67899;DHT22;54699;51.796;10.956;2023-11-21T14:37:00;17.80;55.20
67899;DHT22;54699;51.796;10.956;2023-11-21T14:39:28;17.70;55.00
67899;DHT22;54699;51.796;10.956;2023-11-21T14:41:56;17.80;55.10
67899;DHT22;54699;51.796;10.956;2023-11-21T14:44:24;17.80;55.80
67899;DHT22;54699;51.796;10.956;2023-11-21T14:46:54;17.80;55.50
67899;DHT22;54699;51.796;10.956;2023-11-21T14:49:22;17.80;55.60
67899;DHT22;54699;51.796;10.956;2023-11-21T14:51:53;17.80;55.30
67899;DHT22;54699;51.796;10.956;2023-11-21T14:54:27;17.80;55.30
67899;DHT22;54699;51.796;10.956;2023-11-21T14:57:07;17.80;55.00
67899;DHT22;54699;51.796;10.956;2023-11-21T14:59:36;17.80;55.70
67899;DHT22;54699;51.796;10.956;2023-11-21T15:02:04;17.80;55.40
67899;DHT22;54699;51.796;10.956;2023-11-21T15:04:41;17.80;55.60
67899;DHT22;54699;51.796;10.956;2023-11-21T15:07:08;17.80;55.90
67899;DHT22;54699;51.796;10.956;2023-11-21T15:09:37;17.80;55.80
67899;DHT22;54699;51.796;10.956;2023-11-21T15:12:08;17.90;55.80
67899;DHT22;54699;51.796;10.956;2023-11-21T15:14:40;17.80;56.10
67899;DHT22;54699;51.796;10.956;2023-11-21T15:17:13;17.90;57.50
67899;DHT22;54699;51.796;10.956;2023-11-21T15:19:48;17.90;56.40
67899;DHT22;54699;51.796;10.956;2023-11-21T15:22:15;17.80;55.00
67899;DHT22;54699;51.796;10.956;2023-11-21T15:24:43;17.80;55.90
67899;DHT22;54699;51.796;10.956;2023-11-21T15:27:12;17.90;56.30
67899;DHT22;54699;51.796;10.956;2023-11-21T15:29:40;17.80;56.10
67899;DHT22;54699;51.796;10.956;2023-11-21T15:32:08;17.80;56.60
67899;DHT22;54699;51.796;10.956;2023-11-21T15:34:36;17.90;56.70
67899;DHT22;54699;51.796;10.956;2023-11-21T15:37:04;17.90;56.60